sensor_id;sensor_type;location;lat;lon;timestamp;P1;durP1;ratioP1;P2;durP2;ratioP2
19780;SDS011;10050;55.492;13.506;2022-12-28T00:01:14;13.33;;;8.07;;
19780;SDS011;10050;55.492;13.506;2022-12-28T00:03:42;14.87;;;8.20;;
19780;SDS011;10050;55.492;13.506;2022-12-28T00:06:08;13.37;;;7.60;;
19780;SDS011;10050;55.492;13.506;2022-12-28T00:08:35;16.17;;;8.17;;
19780;SDS011;10050;55.492;13.506;2022-12-28T00:11:02;15.17;;;7.57;;
19780;SDS011;10050;55.492;13.506;2022-12-28T00:13:33;18.97;;;7.27;;
19780;SDS011;10050;55.492;13.506;2022-12-28T00:16:07;10.10;;;6.73;;
19780;SDS011;10050;55.492;13.506;2022-12-28T00:18:35;16.37;;;7.90;;
19780;SDS011;10050;55.492;13.506;2022-12-28T00:21:02;18.83;;;8.20;;
19780;SDS011;10050;55.492;13.506;2022-12-28T00:23:29;19.97;;;7.77;;
19780;SDS011;10050;55.492;13.506;2022-12-28T00:25:55;18.13;;;7.83;;
19780;SDS011;10050;55.492;13.506;2022-12-28T00:28:29;20.47;;;8.77;;
19780;SDS011;10050;55.492;13.506;2022-12-28T00:30:55;18.30;;;8.70;;
19780;SDS011;10050;55.492;13.506;2022-12-28T00:33:21;16.83;;;9.53;;
19780;SDS011;10050;55.492;13.506;2022-12-28T00:35:53;23.00;;;9.40;;
19780;SDS011;10050;55.492;13.506;2022-12-28T00:38:20;18.07;;;9.10;;
19780;SDS011;10050;55.492;13.506;2022-12-28T00:40:46;21.37;;;10.27;;
19780;SDS011;10050;55.492;13.506;2022-12-28T00:43:11;27.53;;;12.63;;
19780;SDS011;10050;55.492;13.506;2022-12-28T00:45:37;22.67;;;10.70;;
19780;SDS011;10050;55.492;13.506;2022-12-28T00:48:03;24.37;;;11.30;;
19780;SDS011;10050;55.492;13.506;2022-12-28T00:50:30;26.17;;;12.03;;
19780;SDS011;10050;55.492;13.506;2022-12-28T00:52:56;18.97;;;11.60;;
19780;SDS011;10050;55.492;13.506;2022-12-28T00:55:21;25.63;;;11.80;;
19780;SDS011;10050;55.492;13.506;2022-12-28T00:57:47;23.47;;;12.50;;
19780;SDS011;10050;55.492;13.506;2022-12-28T01:00:13;25.00;;;11.83;;
19780;SDS011;10050;55.492;13.506;2022-12-28T01:02:39;30.87;;;14.20;;
19780;SDS011;10050;55.492;13.506;2022-12-28T01:05:05;26.63;;;12.37;;
19780;SDS011;10050;55.492;13.506;2022-12-28T01:07:31;24.00;;;13.03;;
19780;SDS011;10050;55.492;13.506;2022-12-28T01:09:56;24.67;;;12.90;;
19780;SDS011;10050;55.492;13.506;2022-12-28T01:12:22;26.80;;;13.87;;
19780;SDS011;10050;55.492;13.506;2022-12-28T01:14:48;36.67;;;15.57;;
19780;SDS011;10050;55.492;13.506;2022-12-28T01:17:13;28.83;;;13.83;;
19780;SDS011;10050;55.492;13.506;2022-12-28T01:19:39;25.50;;;14.80;;
19780;SDS011;10050;55.492;13.506;2022-12-28T01:22:04;25.73;;;14.90;;
19780;SDS011;10050;55.492;13.506;2022-12-28T01:24:30;35.07;;;16.17;;
19780;SDS011;10050;55.492;13.506;2022-12-28T01:26:56;29.03;;;14.60;;
19780;SDS011;10050;55.492;13.506;2022-12-28T01:29:21;30.97;;;15.20;;
19780;SDS011;10050;55.492;13.506;2022-12-28T01:31:47;29.70;;;15.47;;
19780;SDS011;10050;55.492;13.506;2022-12-28T01:34:12;30.17;;;15.50;;
19780;SDS011;10050;55.492;13.506;2022-12-28T01:36:38;31.90;;;16.03;;
19780;SDS011;10050;55.492;13.506;2022-12-28T01:39:05;29.70;;;15.73;;
19780;SDS011;10050;55.492;13.506;2022-12-28T01:41:32;29.77;;;16.00;;
19780;SDS011;10050;55.492;13.506;2022-12-28T01:49:14;28.50;;;15.70;;
19780;SDS011;10050;55.492;13.506;2022-12-28T01:51:53;28.57;;;15.47;;
19780;SDS011;10050;55.492;13.506;2022-12-28T01:54:23;31.40;;;16.77;;
19780;SDS011;10050;55.492;13.506;2022-12-28T01:56:50;32.93;;;16.57;;
19780;SDS011;10050;55.492;13.506;2022-12-28T01:59:17;31.80;;;17.23;;
19780;SDS011;10050;55.492;13.506;2022-12-28T02:01:46;32.73;;;16.67;;
19780;SDS011;10050;55.492;13.506;2022-12-28T02:04:12;32.27;;;17.23;;
19780;SDS011;10050;55.492;13.506;2022-12-28T02:06:38;32.33;;;17.10;;
19780;SDS011;10050;55.492;13.506;2022-12-28T02:09:06;25.73;;;16.37;;
19780;SDS011;10050;55.492;13.506;2022-12-28T02:11:52;32.13;;;16.23;;
19780;SDS011;10050;55.492;13.506;2022-12-28T02:14:19;34.67;;;16.90;;
19780;SDS011;10050;55.492;13.506;2022-12-28T02:16:45;29.73;;;16.30;;
19780;SDS011;10050;55.492;13.506;2022-12-28T02:19:12;29.13;;;15.97;;
19780;SDS011;10050;55.492;13.506;2022-12-28T02:21:54;30.67;;;17.00;;
19780;SDS011;10050;55.492;13.506;2022-12-28T02:24:40;29.67;;;16.53;;
19780;SDS011;10050;55.492;13.506;2022-12-28T02:27:35;30.53;;;16.70;;
19780;SDS011;10050;55.492;13.506;2022-12-28T02:30:20;31.13;;;16.37;;
19780;SDS011;10050;55.492;13.506;2022-12-28T02:33:05;31.80;;;16.80;;
19780;SDS011;10050;55.492;13.506;2022-12-28T02:36:04;27.43;;;15.70;;
19780;SDS011;10050;55.492;13.506;2022-12-28T02:38:39;28.83;;;15.23;;
19780;SDS011;10050;55.492;13.506;2022-12-28T02:41:20;34.30;;;16.53;;
19780;SDS011;10050;55.492;13.506;2022-12-28T02:43:49;32.07;;;17.30;;
19780;SDS011;10050;55.492;13.506;2022-12-28T02:46:17;35.70;;;18.60;;
19780;SDS011;10050;55.492;13.506;2022-12-28T02:49:15;34.00;;;17.93;;
19780;SDS011;10050;55.492;13.506;2022-12-28T03:00:47;37.17;;;18.97;;
19780;SDS011;10050;55.492;13.506;2022-12-28T03:06:29;34.40;;;18.20;;
19780;SDS011;10050;55.492;13.506;2022-12-28T03:09:25;35.23;;;20.20;;
19780;SDS011;10050;55.492;13.506;2022-12-28T03:12:09;37.00;;;18.93;;
19780;SDS011;10050;55.492;13.506;2022-12-28T03:14:48;36.40;;;19.00;;
19780;SDS011;10050;55.492;13.506;2022-12-28T03:17:18;34.53;;;19.00;;
19780;SDS011;10050;55.492;13.506;2022-12-28T03:20:06;31.67;;;18.07;;
19780;SDS011;10050;55.492;13.506;2022-12-28T03:22:54;36.00;;;17.73;;
19780;SDS011;10050;55.492;13.506;2022-12-28T03:25:43;32.43;;;18.23;;
19780;SDS011;10050;55.492;13.506;2022-12-28T03:28:29;36.13;;;18.37;;
19780;SDS011;10050;55.492;13.506;2022-12-28T03:31:19;34.97;;;16.87;;
19780;SDS011;10050;55.492;13.506;2022-12-28T03:33:48;37.00;;;18.20;;
19780;SDS011;10050;55.492;13.506;2022-12-28T03:36:17;30.73;;;15.77;;
19780;SDS011;10050;55.492;13.506;2022-12-28T03:39:02;33.97;;;17.17;;
19780;SDS011;10050;55.492;13.506;2022-12-28T03:41:35;30.10;;;16.37;;
19780;SDS011;10050;55.492;13.506;2022-12-28T03:44:11;34.77;;;18.83;;
19780;SDS011;10050;55.492;13.506;2022-12-28T03:47:14;29.77;;;16.93;;
19780;SDS011;10050;55.492;13.506;2022-12-28T03:49:37;32.30;;;16.20;;
19780;SDS011;10050;55.492;13.506;2022-12-28T03:52:04;35.37;;;15.70;;
19780;SDS011;10050;55.492;13.506;2022-12-28T03:54:31;32.90;;;15.63;;
19780;SDS011;10050;55.492;13.506;2022-12-28T03:56:57;31.73;;;16.10;;
19780;SDS011;10050;55.492;13.506;2022-12-28T03:59:23;27.83;;;15.80;;
19780;SDS011;10050;55.492;13.506;2022-12-28T04:01:48;31.50;;;15.37;;
19780;SDS011;10050;55.492;13.506;2022-12-28T04:04:14;29.17;;;15.50;;
19780;SDS011;10050;55.492;13.506;2022-12-28T04:06:40;35.63;;;15.03;;
19780;SDS011;10050;55.492;13.506;2022-12-28T04:09:07;29.97;;;14.80;;
19780;SDS011;10050;55.492;13.506;2022-12-28T04:11:33;36.07;;;15.70;;
19780;SDS011;10050;55.492;13.506;2022-12-28T04:13:59;29.67;;;15.03;;
19780;SDS011;10050;55.492;13.506;2022-12-28T04:16:27;31.87;;;15.27;;
19780;SDS011;10050;55.492;13.506;2022-12-28T04:18:52;33.53;;;14.97;;
19780;SDS011;10050;55.492;13.506;2022-12-28T04:21:18;29.93;;;14.90;;
19780;SDS011;10050;55.492;13.506;2022-12-28T04:23:44;29.13;;;14.83;;
19780;SDS011;10050;55.492;13.506;2022-12-28T04:26:11;28.23;;;13.67;;
19780;SDS011;10050;55.492;13.506;2022-12-28T04:28:39;29.80;;;13.67;;
19780;SDS011;10050;55.492;13.506;2022-12-28T04:31:05;26.47;;;14.20;;
19780;SDS011;10050;55.492;13.506;2022-12-28T04:33:32;25.37;;;11.90;;
19780;SDS011;10050;55.492;13.506;2022-12-28T04:36:07;29.83;;;11.43;;
19780;SDS011;10050;55.492;13.506;2022-12-28T04:38:33;20.93;;;11.10;;
19780;SDS011;10050;55.492;13.506;2022-12-28T04:41:00;28.47;;;12.30;;
19780;SDS011;10050;55.492;13.506;2022-12-28T04:43:26;17.63;;;11.50;;
19780;SDS011;10050;55.492;13.506;2022-12-28T04:46:01;21.40;;;11.77;;
19780;SDS011;10050;55.492;13.506;2022-12-28T04:48:28;21.27;;;11.90;;
19780;SDS011;10050;55.492;13.506;2022-12-28T04:50:54;22.70;;;15.07;;
19780;SDS011;10050;55.492;13.506;2022-12-28T04:53:21;60.50;;;32.77;;
19780;SDS011;10050;55.492;13.506;2022-12-28T04:55:47;26.93;;;13.50;;
19780;SDS011;10050;55.492;13.506;2022-12-28T04:58:13;42.93;;;24.70;;
19780;SDS011;10050;55.492;13.506;2022-12-28T05:00:39;41.17;;;23.93;;
19780;SDS011;10050;55.492;13.506;2022-12-28T05:03:04;46.70;;;35.93;;
19780;SDS011;10050;55.492;13.506;2022-12-28T05:05:30;32.43;;;20.40;;
19780;SDS011;10050;55.492;13.506;2022-12-28T05:08:00;26.47;;;18.93;;
19780;SDS011;10050;55.492;13.506;2022-12-28T05:10:27;25.10;;;17.17;;
19780;SDS011;10050;55.492;13.506;2022-12-28T05:12:54;31.00;;;21.83;;
19780;SDS011;10050;55.492;13.506;2022-12-28T05:15:20;34.80;;;25.47;;
19780;SDS011;10050;55.492;13.506;2022-12-28T05:17:46;16.07;;;11.17;;
19780;SDS011;10050;55.492;13.506;2022-12-28T05:20:12;15.57;;;8.87;;
19780;SDS011;10050;55.492;13.506;2022-12-28T05:22:37;11.70;;;7.10;;
19780;SDS011;10050;55.492;13.506;2022-12-28T05:25:03;11.10;;;7.10;;
19780;SDS011;10050;55.492;13.506;2022-12-28T05:27:29;9.80;;;5.67;;
19780;SDS011;10050;55.492;13.506;2022-12-28T05:29:54;12.10;;;6.30;;
19780;SDS011;10050;55.492;13.506;2022-12-28T05:32:20;13.13;;;6.20;;
19780;SDS011;10050;55.492;13.506;2022-12-28T05:34:46;13.13;;;6.17;;
19780;SDS011;10050;55.492;13.506;2022-12-28T05:37:11;11.07;;;5.07;;
19780;SDS011;10050;55.492;13.506;2022-12-28T05:39:37;9.83;;;4.50;;
19780;SDS011;10050;55.492;13.506;2022-12-28T05:42:03;10.17;;;4.57;;
19780;SDS011;10050;55.492;13.506;2022-12-28T05:44:28;11.27;;;4.90;;
19780;SDS011;10050;55.492;13.506;2022-12-28T05:46:54;11.40;;;4.10;;
19780;SDS011;10050;55.492;13.506;2022-12-28T05:49:20;12.17;;;4.50;;
19780;SDS011;10050;55.492;13.506;2022-12-28T05:51:49;7.27;;;3.83;;
19780;SDS011;10050;55.492;13.506;2022-12-28T05:54:17;7.97;;;3.37;;
19780;SDS011;10050;55.492;13.506;2022-12-28T05:56:43;13.10;;;4.30;;
19780;SDS011;10050;55.492;13.506;2022-12-28T05:59:09;9.37;;;4.53;;
19780;SDS011;10050;55.492;13.506;2022-12-28T06:01:37;8.27;;;3.77;;
19780;SDS011;10050;55.492;13.506;2022-12-28T06:04:13;9.97;;;3.50;;
19780;SDS011;10050;55.492;13.506;2022-12-28T06:06:41;9.83;;;3.90;;
19780;SDS011;10050;55.492;13.506;2022-12-28T06:09:07;7.83;;;3.73;;
19780;SDS011;10050;55.492;13.506;2022-12-28T06:11:32;8.07;;;3.23;;
19780;SDS011;10050;55.492;13.506;2022-12-28T06:13:58;7.10;;;3.40;;
19780;SDS011;10050;55.492;13.506;2022-12-28T06:16:26;6.97;;;3.50;;
19780;SDS011;10050;55.492;13.506;2022-12-28T06:18:53;9.50;;;2.80;;
19780;SDS011;10050;55.492;13.506;2022-12-28T06:21:26;7.67;;;3.47;;
19780;SDS011;10050;55.492;13.506;2022-12-28T06:23:54;9.63;;;2.97;;
19780;SDS011;10050;55.492;13.506;2022-12-28T06:26:24;10.13;;;3.03;;
19780;SDS011;10050;55.492;13.506;2022-12-28T06:28:51;7.40;;;2.50;;
19780;SDS011;10050;55.492;13.506;2022-12-28T06:31:21;6.13;;;2.40;;
19780;SDS011;10050;55.492;13.506;2022-12-28T06:33:52;4.70;;;2.27;;
19780;SDS011;10050;55.492;13.506;2022-12-28T06:36:20;5.10;;;2.47;;
19780;SDS011;10050;55.492;13.506;2022-12-28T06:38:48;8.37;;;2.80;;
19780;SDS011;10050;55.492;13.506;2022-12-28T06:41:15;6.40;;;2.27;;
19780;SDS011;10050;55.492;13.506;2022-12-28T06:43:42;6.37;;;1.93;;
19780;SDS011;10050;55.492;13.506;2022-12-28T06:46:10;7.43;;;2.10;;
19780;SDS011;10050;55.492;13.506;2022-12-28T06:48:36;16.33;;;2.83;;
19780;SDS011;10050;55.492;13.506;2022-12-28T06:51:03;10.27;;;2.60;;
19780;SDS011;10050;55.492;13.506;2022-12-28T06:53:32;6.77;;;2.17;;
19780;SDS011;10050;55.492;13.506;2022-12-28T06:56:09;6.30;;;2.33;;
19780;SDS011;10050;55.492;13.506;2022-12-28T06:58:37;9.63;;;2.67;;
19780;SDS011;10050;55.492;13.506;2022-12-28T07:01:04;6.37;;;2.50;;
19780;SDS011;10050;55.492;13.506;2022-12-28T07:03:35;3.77;;;2.43;;
19780;SDS011;10050;55.492;13.506;2022-12-28T07:06:01;5.70;;;2.43;;
19780;SDS011;10050;55.492;13.506;2022-12-28T07:08:28;8.67;;;2.47;;
19780;SDS011;10050;55.492;13.506;2022-12-28T07:10:54;8.60;;;2.73;;
19780;SDS011;10050;55.492;13.506;2022-12-28T07:13:19;4.63;;;2.77;;
19780;SDS011;10050;55.492;13.506;2022-12-28T07:15:45;5.53;;;3.00;;
19780;SDS011;10050;55.492;13.506;2022-12-28T07:18:11;10.10;;;2.90;;
19780;SDS011;10050;55.492;13.506;2022-12-28T07:20:36;6.57;;;2.90;;
19780;SDS011;10050;55.492;13.506;2022-12-28T07:23:02;8.00;;;3.07;;
19780;SDS011;10050;55.492;13.506;2022-12-28T07:25:28;8.57;;;2.97;;
19780;SDS011;10050;55.492;13.506;2022-12-28T07:27:53;8.20;;;2.90;;
19780;SDS011;10050;55.492;13.506;2022-12-28T07:30:19;9.33;;;3.40;;
19780;SDS011;10050;55.492;13.506;2022-12-28T07:32:45;8.20;;;3.77;;
19780;SDS011;10050;55.492;13.506;2022-12-28T07:35:10;6.03;;;3.40;;
19780;SDS011;10050;55.492;13.506;2022-12-28T07:37:36;8.87;;;3.43;;
19780;SDS011;10050;55.492;13.506;2022-12-28T07:40:02;7.43;;;3.30;;
19780;SDS011;10050;55.492;13.506;2022-12-28T07:42:28;7.37;;;3.40;;
19780;SDS011;10050;55.492;13.506;2022-12-28T07:44:53;7.77;;;2.90;;
19780;SDS011;10050;55.492;13.506;2022-12-28T07:47:19;6.10;;;2.77;;
19780;SDS011;10050;55.492;13.506;2022-12-28T07:49:45;7.17;;;3.10;;
19780;SDS011;10050;55.492;13.506;2022-12-28T07:52:10;8.23;;;2.57;;
19780;SDS011;10050;55.492;13.506;2022-12-28T07:54:36;6.63;;;2.70;;
19780;SDS011;10050;55.492;13.506;2022-12-28T07:57:02;6.00;;;2.57;;
19780;SDS011;10050;55.492;13.506;2022-12-28T07:59:28;7.07;;;2.47;;
19780;SDS011;10050;55.492;13.506;2022-12-28T08:01:53;4.57;;;2.70;;
19780;SDS011;10050;55.492;13.506;2022-12-28T08:04:19;5.53;;;2.83;;
19780;SDS011;10050;55.492;13.506;2022-12-28T08:06:45;5.70;;;2.17;;
19780;SDS011;10050;55.492;13.506;2022-12-28T08:09:11;5.03;;;2.20;;
19780;SDS011;10050;55.492;13.506;2022-12-28T08:11:39;8.53;;;2.80;;
19780;SDS011;10050;55.492;13.506;2022-12-28T08:14:07;4.53;;;2.27;;
19780;SDS011;10050;55.492;13.506;2022-12-28T08:16:35;4.67;;;2.30;;
19780;SDS011;10050;55.492;13.506;2022-12-28T08:19:02;7.30;;;3.27;;
19780;SDS011;10050;55.492;13.506;2022-12-28T08:21:29;5.90;;;2.83;;
19780;SDS011;10050;55.492;13.506;2022-12-28T08:23:57;12.00;;;2.90;;
19780;SDS011;10050;55.492;13.506;2022-12-28T08:28:51;11.37;;;3.07;;
19780;SDS011;10050;55.492;13.506;2022-12-28T08:31:20;6.53;;;2.83;;
19780;SDS011;10050;55.492;13.506;2022-12-28T08:33:51;10.33;;;3.23;;
19780;SDS011;10050;55.492;13.506;2022-12-28T08:36:17;6.80;;;2.80;;
19780;SDS011;10050;55.492;13.506;2022-12-28T08:38:43;6.10;;;3.10;;
19780;SDS011;10050;55.492;13.506;2022-12-28T08:41:10;4.97;;;3.00;;
19780;SDS011;10050;55.492;13.506;2022-12-28T08:43:39;9.20;;;4.27;;
19780;SDS011;10050;55.492;13.506;2022-12-28T08:46:10;7.83;;;3.00;;
19780;SDS011;10050;55.492;13.506;2022-12-28T08:48:36;6.40;;;3.53;;
19780;SDS011;10050;55.492;13.506;2022-12-28T08:51:06;6.43;;;3.40;;
19780;SDS011;10050;55.492;13.506;2022-12-28T08:53:34;7.80;;;3.87;;
19780;SDS011;10050;55.492;13.506;2022-12-28T08:56:04;8.00;;;2.80;;
19780;SDS011;10050;55.492;13.506;2022-12-28T08:58:39;5.93;;;3.30;;
19780;SDS011;10050;55.492;13.506;2022-12-28T09:03:36;8.77;;;4.67;;
19780;SDS011;10050;55.492;13.506;2022-12-28T09:06:07;8.07;;;4.40;;
19780;SDS011;10050;55.492;13.506;2022-12-28T09:08:35;7.10;;;4.60;;
19780;SDS011;10050;55.492;13.506;2022-12-28T09:11:03;6.67;;;3.40;;
19780;SDS011;10050;55.492;13.506;2022-12-28T09:13:31;7.10;;;3.73;;
19780;SDS011;10050;55.492;13.506;2022-12-28T09:15:58;8.83;;;3.67;;
19780;SDS011;10050;55.492;13.506;2022-12-28T09:18:25;8.87;;;4.60;;
19780;SDS011;10050;55.492;13.506;2022-12-28T09:20:51;6.97;;;3.40;;
19780;SDS011;10050;55.492;13.506;2022-12-28T09:23:16;5.00;;;3.10;;
19780;SDS011;10050;55.492;13.506;2022-12-28T09:25:42;9.83;;;3.37;;
19780;SDS011;10050;55.492;13.506;2022-12-28T09:28:08;6.27;;;2.90;;
19780;SDS011;10050;55.492;13.506;2022-12-28T09:30:35;6.37;;;4.07;;
19780;SDS011;10050;55.492;13.506;2022-12-28T09:33:00;11.03;;;4.50;;
19780;SDS011;10050;55.492;13.506;2022-12-28T09:35:45;6.13;;;2.93;;
19780;SDS011;10050;55.492;13.506;2022-12-28T09:38:10;6.07;;;3.50;;
19780;SDS011;10050;55.492;13.506;2022-12-28T09:40:36;8.60;;;3.37;;
19780;SDS011;10050;55.492;13.506;2022-12-28T09:43:02;14.33;;;3.20;;
19780;SDS011;10050;55.492;13.506;2022-12-28T09:45:29;5.77;;;2.60;;
19780;SDS011;10050;55.492;13.506;2022-12-28T09:48:01;6.23;;;2.87;;
19780;SDS011;10050;55.492;13.506;2022-12-28T09:50:31;9.20;;;3.10;;
19780;SDS011;10050;55.492;13.506;2022-12-28T09:55:34;6.13;;;2.57;;
19780;SDS011;10050;55.492;13.506;2022-12-28T09:58:02;4.43;;;2.30;;
19780;SDS011;10050;55.492;13.506;2022-12-28T10:00:43;4.33;;;2.50;;
19780;SDS011;10050;55.492;13.506;2022-12-28T10:03:14;6.07;;;2.80;;
19780;SDS011;10050;55.492;13.506;2022-12-28T10:05:40;4.03;;;2.87;;
19780;SDS011;10050;55.492;13.506;2022-12-28T10:08:08;5.67;;;3.10;;
19780;SDS011;10050;55.492;13.506;2022-12-28T10:10:37;5.73;;;3.00;;
19780;SDS011;10050;55.492;13.506;2022-12-28T10:13:12;7.87;;;2.73;;
19780;SDS011;10050;55.492;13.506;2022-12-28T10:15:44;4.63;;;2.60;;
19780;SDS011;10050;55.492;13.506;2022-12-28T10:18:11;3.07;;;2.77;;
19780;SDS011;10050;55.492;13.506;2022-12-28T10:20:39;5.67;;;2.97;;
19780;SDS011;10050;55.492;13.506;2022-12-28T10:23:06;6.23;;;2.63;;
19780;SDS011;10050;55.492;13.506;2022-12-28T10:25:41;5.53;;;3.00;;
19780;SDS011;10050;55.492;13.506;2022-12-28T10:28:07;6.50;;;2.57;;
19780;SDS011;10050;55.492;13.506;2022-12-28T10:30:47;4.77;;;2.90;;
19780;SDS011;10050;55.492;13.506;2022-12-28T10:33:28;4.07;;;2.83;;
19780;SDS011;10050;55.492;13.506;2022-12-28T10:35:55;12.97;;;5.17;;
19780;SDS011;10050;55.492;13.506;2022-12-28T10:38:31;3.60;;;2.50;;
19780;SDS011;10050;55.492;13.506;2022-12-28T10:41:04;8.00;;;3.50;;
19780;SDS011;10050;55.492;13.506;2022-12-28T10:43:34;3.80;;;2.73;;
19780;SDS011;10050;55.492;13.506;2022-12-28T10:46:03;9.47;;;5.37;;
19780;SDS011;10050;55.492;13.506;2022-12-28T10:48:38;8.20;;;4.17;;
19780;SDS011;10050;55.492;13.506;2022-12-28T10:53:50;6.83;;;3.77;;
19780;SDS011;10050;55.492;13.506;2022-12-28T10:56:27;10.07;;;3.83;;
19780;SDS011;10050;55.492;13.506;2022-12-28T11:01:35;8.47;;;4.47;;
19780;SDS011;10050;55.492;13.506;2022-12-28T11:04:21;10.10;;;4.87;;
19780;SDS011;10050;55.492;13.506;2022-12-28T11:06:54;6.53;;;3.90;;
19780;SDS011;10050;55.492;13.506;2022-12-28T11:09:22;5.03;;;3.20;;
19780;SDS011;10050;55.492;13.506;2022-12-28T11:11:54;7.20;;;3.30;;
19780;SDS011;10050;55.492;13.506;2022-12-28T11:14:39;6.73;;;3.67;;
19780;SDS011;10050;55.492;13.506;2022-12-28T11:17:18;9.77;;;3.50;;
19780;SDS011;10050;55.492;13.506;2022-12-28T11:19:45;10.43;;;4.67;;
19780;SDS011;10050;55.492;13.506;2022-12-28T11:22:14;8.33;;;4.03;;
19780;SDS011;10050;55.492;13.506;2022-12-28T11:24:46;12.83;;;3.57;;
19780;SDS011;10050;55.492;13.506;2022-12-28T11:27:12;11.07;;;4.10;;
19780;SDS011;10050;55.492;13.506;2022-12-28T11:29:40;8.43;;;3.37;;
19780;SDS011;10050;55.492;13.506;2022-12-28T11:32:14;9.47;;;3.77;;
19780;SDS011;10050;55.492;13.506;2022-12-28T11:34:52;7.67;;;3.77;;
19780;SDS011;10050;55.492;13.506;2022-12-28T11:37:19;11.87;;;3.80;;
19780;SDS011;10050;55.492;13.506;2022-12-28T11:39:49;10.53;;;2.90;;
19780;SDS011;10050;55.492;13.506;2022-12-28T11:44:57;9.43;;;3.83;;
19780;SDS011;10050;55.492;13.506;2022-12-28T11:47:24;9.87;;;4.00;;
19780;SDS011;10050;55.492;13.506;2022-12-28T11:52:57;6.37;;;2.97;;
19780;SDS011;10050;55.492;13.506;2022-12-28T11:57:50;7.80;;;3.70;;
19780;SDS011;10050;55.492;13.506;2022-12-28T12:02:46;8.03;;;3.50;;
19780;SDS011;10050;55.492;13.506;2022-12-28T12:08:01;9.10;;;3.80;;
19780;SDS011;10050;55.492;13.506;2022-12-28T12:10:36;7.10;;;3.40;;
19780;SDS011;10050;55.492;13.506;2022-12-28T12:15:51;9.50;;;3.77;;
19780;SDS011;10050;55.492;13.506;2022-12-28T12:18:28;6.97;;;3.10;;
19780;SDS011;10050;55.492;13.506;2022-12-28T12:20:58;8.67;;;3.20;;
19780;SDS011;10050;55.492;13.506;2022-12-28T12:26:15;5.33;;;3.17;;
19780;SDS011;10050;55.492;13.506;2022-12-28T12:28:51;12.00;;;4.17;;
19780;SDS011;10050;55.492;13.506;2022-12-28T12:31:41;4.77;;;3.10;;
19780;SDS011;10050;55.492;13.506;2022-12-28T12:34:22;10.83;;;3.03;;
19780;SDS011;10050;55.492;13.506;2022-12-28T12:37:05;7.87;;;3.87;;
19780;SDS011;10050;55.492;13.506;2022-12-28T12:42:22;9.00;;;3.50;;
19780;SDS011;10050;55.492;13.506;2022-12-28T12:45:57;11.03;;;4.20;;
19780;SDS011;10050;55.492;13.506;2022-12-28T13:04:42;6.77;;;3.67;;
19780;SDS011;10050;55.492;13.506;2022-12-28T13:07:15;4.97;;;3.10;;
19780;SDS011;10050;55.492;13.506;2022-12-28T13:09:44;10.23;;;3.80;;
19780;SDS011;10050;55.492;13.506;2022-12-28T13:12:13;9.03;;;3.70;;
19780;SDS011;10050;55.492;13.506;2022-12-28T13:14:47;9.37;;;4.10;;
19780;SDS011;10050;55.492;13.506;2022-12-28T13:17:21;5.17;;;3.87;;
19780;SDS011;10050;55.492;13.506;2022-12-28T13:19:48;5.80;;;3.30;;
19780;SDS011;10050;55.492;13.506;2022-12-28T13:25:26;9.13;;;4.03;;
19780;SDS011;10050;55.492;13.506;2022-12-28T13:27:56;4.20;;;3.60;;
19780;SDS011;10050;55.492;13.506;2022-12-28T13:30:25;6.30;;;3.37;;
19780;SDS011;10050;55.492;13.506;2022-12-28T13:32:56;7.53;;;3.60;;
19780;SDS011;10050;55.492;13.506;2022-12-28T13:35:27;7.80;;;3.80;;
19780;SDS011;10050;55.492;13.506;2022-12-28T13:38:04;7.40;;;3.57;;
19780;SDS011;10050;55.492;13.506;2022-12-28T13:40:37;10.23;;;3.83;;
19780;SDS011;10050;55.492;13.506;2022-12-28T13:45:36;5.50;;;3.70;;
19780;SDS011;10050;55.492;13.506;2022-12-28T13:48:02;7.23;;;4.20;;
19780;SDS011;10050;55.492;13.506;2022-12-28T13:50:30;11.03;;;4.20;;
19780;SDS011;10050;55.492;13.506;2022-12-28T13:52:59;5.63;;;4.23;;
19780;SDS011;10050;55.492;13.506;2022-12-28T13:55:36;4.40;;;3.90;;
19780;SDS011;10050;55.492;13.506;2022-12-28T13:58:10;8.20;;;4.07;;
19780;SDS011;10050;55.492;13.506;2022-12-28T14:00:43;7.67;;;4.00;;
19780;SDS011;10050;55.492;13.506;2022-12-28T14:03:11;8.03;;;4.13;;
19780;SDS011;10050;55.492;13.506;2022-12-28T14:05:41;8.20;;;4.27;;
19780;SDS011;10050;55.492;13.506;2022-12-28T14:08:09;5.80;;;4.30;;
19780;SDS011;10050;55.492;13.506;2022-12-28T14:10:35;4.97;;;4.10;;
19780;SDS011;10050;55.492;13.506;2022-12-28T14:13:04;5.90;;;4.40;;
19780;SDS011;10050;55.492;13.506;2022-12-28T14:15:33;9.43;;;4.37;;
19780;SDS011;10050;55.492;13.506;2022-12-28T14:18:00;8.07;;;4.40;;
19780;SDS011;10050;55.492;13.506;2022-12-28T14:20:26;6.50;;;4.60;;
19780;SDS011;10050;55.492;13.506;2022-12-28T14:22:52;9.40;;;4.57;;
19780;SDS011;10050;55.492;13.506;2022-12-28T14:25:19;6.43;;;4.33;;
19780;SDS011;10050;55.492;13.506;2022-12-28T14:27:53;9.43;;;4.50;;
19780;SDS011;10050;55.492;13.506;2022-12-28T14:32:52;7.60;;;4.10;;
19780;SDS011;10050;55.492;13.506;2022-12-28T14:35:23;6.43;;;4.20;;
19780;SDS011;10050;55.492;13.506;2022-12-28T14:37:52;5.63;;;3.40;;
19780;SDS011;10050;55.492;13.506;2022-12-28T14:40:25;6.23;;;3.83;;
19780;SDS011;10050;55.492;13.506;2022-12-28T14:43:08;7.63;;;3.77;;
19780;SDS011;10050;55.492;13.506;2022-12-28T14:45:46;5.23;;;3.70;;
19780;SDS011;10050;55.492;13.506;2022-12-28T14:51:25;4.70;;;3.53;;
19780;SDS011;10050;55.492;13.506;2022-12-28T14:56:35;7.97;;;3.63;;
19780;SDS011;10050;55.492;13.506;2022-12-28T14:59:02;6.40;;;3.90;;
19780;SDS011;10050;55.492;13.506;2022-12-28T15:01:40;6.33;;;3.80;;
19780;SDS011;10050;55.492;13.506;2022-12-28T15:04:23;8.77;;;4.07;;
19780;SDS011;10050;55.492;13.506;2022-12-28T15:07:08;7.43;;;3.90;;
19780;SDS011;10050;55.492;13.506;2022-12-28T15:09:35;5.67;;;3.77;;
19780;SDS011;10050;55.492;13.506;2022-12-28T15:12:12;7.17;;;3.90;;
19780;SDS011;10050;55.492;13.506;2022-12-28T15:14:44;7.97;;;3.30;;
19780;SDS011;10050;55.492;13.506;2022-12-28T15:17:10;6.70;;;3.47;;
19780;SDS011;10050;55.492;13.506;2022-12-28T15:19:37;7.00;;;3.17;;
19780;SDS011;10050;55.492;13.506;2022-12-28T15:22:03;5.70;;;3.23;;
19780;SDS011;10050;55.492;13.506;2022-12-28T15:24:29;10.17;;;3.40;;
19780;SDS011;10050;55.492;13.506;2022-12-28T15:26:56;5.70;;;3.43;;
19780;SDS011;10050;55.492;13.506;2022-12-28T15:29:21;9.50;;;3.50;;
19780;SDS011;10050;55.492;13.506;2022-12-28T15:31:47;5.93;;;3.63;;
19780;SDS011;10050;55.492;13.506;2022-12-28T15:34:13;7.13;;;3.20;;
19780;SDS011;10050;55.492;13.506;2022-12-28T15:36:39;9.90;;;3.10;;
19780;SDS011;10050;55.492;13.506;2022-12-28T15:39:06;8.53;;;3.40;;
19780;SDS011;10050;55.492;13.506;2022-12-28T15:41:35;7.33;;;3.23;;
19780;SDS011;10050;55.492;13.506;2022-12-28T15:44:14;7.00;;;3.40;;
19780;SDS011;10050;55.492;13.506;2022-12-28T15:46:41;4.10;;;2.53;;
19780;SDS011;10050;55.492;13.506;2022-12-28T15:49:09;8.00;;;3.00;;
19780;SDS011;10050;55.492;13.506;2022-12-28T15:51:35;7.17;;;3.10;;
19780;SDS011;10050;55.492;13.506;2022-12-28T15:54:01;7.13;;;3.20;;
19780;SDS011;10050;55.492;13.506;2022-12-28T15:56:28;6.77;;;3.03;;
19780;SDS011;10050;55.492;13.506;2022-12-28T15:58:55;6.03;;;3.17;;
19780;SDS011;10050;55.492;13.506;2022-12-28T16:01:23;13.00;;;3.07;;
19780;SDS011;10050;55.492;13.506;2022-12-28T16:03:50;8.27;;;3.30;;